Portada
METAR-TAF:

METAR-TAF

Aeroports :

Esmeraldas, Equador

latitud: 00-58-43N, longitud: 079-37-36W, altitud: 10 m

Observació

L'informe es va fer fa 5 minuts, a les 19:00 UTC
Vent 6 kt del Sud-Oest, variant entre Sud-Oest i Nord
Temperatura 29°C
Humitat 70%
Pressió 1009 hPa
Visibilitat 10 km o més
Núvols disperses a una alçada de 4000 ft

METAR: SETN 181900Z 23006KT 220V350 9999 SCT040 29/23 Q1009 A2980

Hora: 14:05 (19:05 UTC)


TAF: manca

Observacions i pronòstics meteorològics de més de 4000 aeroports (METAR i TAF).

Les estacions disponibles són els punts grocs i vermells al mapa.

Posi el ratolí al punt desitjat per veure el nom de l'estació.

Feu clic per veure les observacions i els pronòstics meteorològics.

Per canviar el mapa: feu clic els botons verds amb una creu de color negre per apropar; al botó verd amb un guió per allunyar la imatge; o en les fletxes verdes per a mapes adjacents.


METAR-TAF: